sensor_id;sensor_type;location;lat;lon;timestamp;temperature;humidity
27114;DHT22;14648;49.730;8.614;2023-09-12T00:01:38;21.40;54.90
27114;DHT22;14648;49.730;8.614;2023-09-12T00:04:04;21.40;54.90
27114;DHT22;14648;49.730;8.614;2023-09-12T00:06:30;21.40;55.00
27114;DHT22;14648;49.730;8.614;2023-09-12T00:08:55;21.40;55.10
27114;DHT22;14648;49.730;8.614;2023-09-12T00:11:21;21.30;55.20
27114;DHT22;14648;49.730;8.614;2023-09-12T00:13:51;21.30;55.20
27114;DHT22;14648;49.730;8.614;2023-09-12T00:16:17;21.30;55.30
27114;DHT22;14648;49.730;8.614;2023-09-12T00:18:43;21.30;55.30
27114;DHT22;14648;49.730;8.614;2023-09-12T00:21:09;21.30;55.40
27114;DHT22;14648;49.730;8.614;2023-09-12T00:23:34;21.30;55.40
27114;DHT22;14648;49.730;8.614;2023-09-12T00:26:00;21.20;55.40
27114;DHT22;14648;49.730;8.614;2023-09-12T00:28:26;21.20;55.40
27114;DHT22;14648;49.730;8.614;2023-09-12T00:30:52;21.20;55.50
27114;DHT22;14648;49.730;8.614;2023-09-12T00:33:18;21.10;55.70
27114;DHT22;14648;49.730;8.614;2023-09-12T00:35:44;21.10;55.80
27114;DHT22;14648;49.730;8.614;2023-09-12T00:38:10;21.00;55.80
27114;DHT22;14648;49.730;8.614;2023-09-12T00:40:36;21.00;55.80
27114;DHT22;14648;49.730;8.614;2023-09-12T00:43:03;21.00;55.80
27114;DHT22;14648;49.730;8.614;2023-09-12T00:45:29;21.10;56.00
27114;DHT22;14648;49.730;8.614;2023-09-12T00:47:55;21.10;55.90
27114;DHT22;14648;49.730;8.614;2023-09-12T00:50:25;21.10;56.10
27114;DHT22;14648;49.730;8.614;2023-09-12T00:52:52;21.00;56.00
27114;DHT22;14648;49.730;8.614;2023-09-12T00:55:19;21.00;56.10
27114;DHT22;14648;49.730;8.614;2023-09-12T00:57:45;21.00;56.10
27114;DHT22;14648;49.730;8.614;2023-09-12T01:00:12;21.00;56.20
27114;DHT22;14648;49.730;8.614;2023-09-12T01:02:42;21.00;56.30
27114;DHT22;14648;49.730;8.614;2023-09-12T01:05:10;21.00;56.30
27114;DHT22;14648;49.730;8.614;2023-09-12T01:07:37;21.00;56.30
27114;DHT22;14648;49.730;8.614;2023-09-12T01:10:04;21.00;56.40
27114;DHT22;14648;49.730;8.614;2023-09-12T01:12:31;21.00;56.50
27114;DHT22;14648;49.730;8.614;2023-09-12T01:14:57;20.90;56.50
27114;DHT22;14648;49.730;8.614;2023-09-12T01:17:23;20.90;56.50
27114;DHT22;14648;49.730;8.614;2023-09-12T01:19:50;20.90;56.50
27114;DHT22;14648;49.730;8.614;2023-09-12T01:22:27;20.90;56.60
27114;DHT22;14648;49.730;8.614;2023-09-12T01:27:58;20.80;56.60
27114;DHT22;14648;49.730;8.614;2023-09-12T01:30:28;20.80;56.60
27114;DHT22;14648;49.730;8.614;2023-09-12T01:32:54;20.80;56.80
27114;DHT22;14648;49.730;8.614;2023-09-12T01:35:20;20.80;56.70
27114;DHT22;14648;49.730;8.614;2023-09-12T01:37:46;20.80;56.80
27114;DHT22;14648;49.730;8.614;2023-09-12T01:40:12;20.70;56.80
27114;DHT22;14648;49.730;8.614;2023-09-12T01:42:42;20.70;56.90
27114;DHT22;14648;49.730;8.614;2023-09-12T01:45:11;20.70;57.00
27114;DHT22;14648;49.730;8.614;2023-09-12T01:47:39;20.70;57.10
27114;DHT22;14648;49.730;8.614;2023-09-12T01:50:09;20.70;57.10
27114;DHT22;14648;49.730;8.614;2023-09-12T01:52:38;20.70;57.20
27114;DHT22;14648;49.730;8.614;2023-09-12T01:55:05;20.60;57.10
27114;DHT22;14648;49.730;8.614;2023-09-12T01:57:35;20.60;57.20
27114;DHT22;14648;49.730;8.614;2023-09-12T02:00:01;20.60;57.20
27114;DHT22;14648;49.730;8.614;2023-09-12T02:02:27;20.60;57.30
27114;DHT22;14648;49.730;8.614;2023-09-12T02:05:14;20.60;57.30
27114;DHT22;14648;49.730;8.614;2023-09-12T02:07:44;20.60;57.50
27114;DHT22;14648;49.730;8.614;2023-09-12T02:10:11;20.50;57.40
27114;DHT22;14648;49.730;8.614;2023-09-12T02:12:38;20.50;57.50
27114;DHT22;14648;49.730;8.614;2023-09-12T02:15:05;20.50;57.50
27114;DHT22;14648;49.730;8.614;2023-09-12T02:17:31;20.50;57.60
27114;DHT22;14648;49.730;8.614;2023-09-12T02:19:56;20.50;57.60
27114;DHT22;14648;49.730;8.614;2023-09-12T02:22:22;20.50;58.00
27114;DHT22;14648;49.730;8.614;2023-09-12T02:24:49;20.40;57.60
27114;DHT22;14648;49.730;8.614;2023-09-12T02:27:15;20.40;57.70
27114;DHT22;14648;49.730;8.614;2023-09-12T02:29:42;20.40;57.70
27114;DHT22;14648;49.730;8.614;2023-09-12T02:32:08;20.40;57.70
27114;DHT22;14648;49.730;8.614;2023-09-12T02:34:34;20.40;57.80
27114;DHT22;14648;49.730;8.614;2023-09-12T02:37:00;20.40;57.90
27114;DHT22;14648;49.730;8.614;2023-09-12T02:39:26;20.40;57.90
27114;DHT22;14648;49.730;8.614;2023-09-12T02:41:52;20.30;57.90
27114;DHT22;14648;49.730;8.614;2023-09-12T02:44:17;20.40;57.90
27114;DHT22;14648;49.730;8.614;2023-09-12T02:46:43;20.30;58.00
27114;DHT22;14648;49.730;8.614;2023-09-12T02:49:09;20.30;58.10
27114;DHT22;14648;49.730;8.614;2023-09-12T02:51:38;20.30;58.10
27114;DHT22;14648;49.730;8.614;2023-09-12T02:54:04;20.30;58.20
27114;DHT22;14648;49.730;8.614;2023-09-12T02:56:30;20.30;58.10
27114;DHT22;14648;49.730;8.614;2023-09-12T02:58:56;20.30;58.20
27114;DHT22;14648;49.730;8.614;2023-09-12T03:01:22;20.30;58.20
27114;DHT22;14648;49.730;8.614;2023-09-12T03:03:50;20.20;58.20
27114;DHT22;14648;49.730;8.614;2023-09-12T03:06:16;20.20;58.40
27114;DHT22;14648;49.730;8.614;2023-09-12T03:08:44;20.10;58.50
27114;DHT22;14648;49.730;8.614;2023-09-12T03:11:10;20.20;58.50
27114;DHT22;14648;49.730;8.614;2023-09-12T03:13:42;20.10;58.50
27114;DHT22;14648;49.730;8.614;2023-09-12T03:16:11;20.10;58.50
27114;DHT22;14648;49.730;8.614;2023-09-12T03:18:38;20.10;58.50
27114;DHT22;14648;49.730;8.614;2023-09-12T03:21:04;20.10;59.20
27114;DHT22;14648;49.730;8.614;2023-09-12T03:23:30;20.10;58.50
27114;DHT22;14648;49.730;8.614;2023-09-12T03:26:01;20.10;58.50
27114;DHT22;14648;49.730;8.614;2023-09-12T03:28:31;20.10;58.60
27114;DHT22;14648;49.730;8.614;2023-09-12T03:31:07;20.10;58.70
27114;DHT22;14648;49.730;8.614;2023-09-12T03:33:38;20.00;58.70
27114;DHT22;14648;49.730;8.614;2023-09-12T03:36:05;20.00;58.70
27114;DHT22;14648;49.730;8.614;2023-09-12T03:38:32;20.00;58.80
27114;DHT22;14648;49.730;8.614;2023-09-12T03:40:58;20.00;58.80
27114;DHT22;14648;49.730;8.614;2023-09-12T03:43:24;20.00;58.80
27114;DHT22;14648;49.730;8.614;2023-09-12T03:45:50;20.10;58.80
27114;DHT22;14648;49.730;8.614;2023-09-12T03:48:16;20.10;58.90
27114;DHT22;14648;49.730;8.614;2023-09-12T03:50:41;20.10;58.90
27114;DHT22;14648;49.730;8.614;2023-09-12T03:53:07;20.10;58.90
27114;DHT22;14648;49.730;8.614;2023-09-12T03:55:33;20.10;58.90
27114;DHT22;14648;49.730;8.614;2023-09-12T03:57:59;20.20;58.80
27114;DHT22;14648;49.730;8.614;2023-09-12T04:00:25;20.20;58.90
27114;DHT22;14648;49.730;8.614;2023-09-12T04:02:51;20.10;59.00
27114;DHT22;14648;49.730;8.614;2023-09-12T04:05:17;20.20;59.00
27114;DHT22;14648;49.730;8.614;2023-09-12T04:07:42;20.10;59.00
27114;DHT22;14648;49.730;8.614;2023-09-12T04:10:08;20.10;59.10
27114;DHT22;14648;49.730;8.614;2023-09-12T04:12:34;20.10;59.20
27114;DHT22;14648;49.730;8.614;2023-09-12T04:15:00;20.10;59.20
27114;DHT22;14648;49.730;8.614;2023-09-12T04:17:25;20.10;59.20
27114;DHT22;14648;49.730;8.614;2023-09-12T04:19:51;20.20;59.20
27114;DHT22;14648;49.730;8.614;2023-09-12T04:22:16;20.20;59.20
27114;DHT22;14648;49.730;8.614;2023-09-12T04:24:42;20.20;59.20
27114;DHT22;14648;49.730;8.614;2023-09-12T04:27:08;20.20;59.20
27114;DHT22;14648;49.730;8.614;2023-09-12T04:29:34;20.20;59.30
27114;DHT22;14648;49.730;8.614;2023-09-12T04:32:06;20.20;59.30
27114;DHT22;14648;49.730;8.614;2023-09-12T04:34:31;20.20;59.40
27114;DHT22;14648;49.730;8.614;2023-09-12T04:36:57;20.20;59.30
27114;DHT22;14648;49.730;8.614;2023-09-12T04:39:23;20.20;59.40
27114;DHT22;14648;49.730;8.614;2023-09-12T04:41:49;20.30;59.50
27114;DHT22;14648;49.730;8.614;2023-09-12T04:44:14;20.20;59.40
27114;DHT22;14648;49.730;8.614;2023-09-12T04:46:40;20.30;59.60
27114;DHT22;14648;49.730;8.614;2023-09-12T04:49:06;20.30;59.70
27114;DHT22;14648;49.730;8.614;2023-09-12T04:51:32;20.30;59.70
27114;DHT22;14648;49.730;8.614;2023-09-12T04:53:57;20.30;59.70
27114;DHT22;14648;49.730;8.614;2023-09-12T04:56:23;20.30;59.80
27114;DHT22;14648;49.730;8.614;2023-09-12T04:58:51;20.30;59.90
27114;DHT22;14648;49.730;8.614;2023-09-12T05:01:17;20.30;59.90
27114;DHT22;14648;49.730;8.614;2023-09-12T05:03:43;20.30;60.00
27114;DHT22;14648;49.730;8.614;2023-09-12T05:06:10;20.30;60.00
27114;DHT22;14648;49.730;8.614;2023-09-12T05:08:36;20.30;60.10
27114;DHT22;14648;49.730;8.614;2023-09-12T05:11:02;20.30;60.00
27114;DHT22;14648;49.730;8.614;2023-09-12T05:13:30;20.30;60.10
27114;DHT22;14648;49.730;8.614;2023-09-12T05:15:56;20.30;60.10
27114;DHT22;14648;49.730;8.614;2023-09-12T05:18:22;20.30;60.20
27114;DHT22;14648;49.730;8.614;2023-09-12T05:20:49;20.30;60.20
27114;DHT22;14648;49.730;8.614;2023-09-12T05:23:15;20.40;60.20
27114;DHT22;14648;49.730;8.614;2023-09-12T05:25:41;20.40;60.20
27114;DHT22;14648;49.730;8.614;2023-09-12T05:28:06;20.40;60.20
27114;DHT22;14648;49.730;8.614;2023-09-12T05:30:32;20.40;60.20
27114;DHT22;14648;49.730;8.614;2023-09-12T05:32:58;20.40;60.20
27114;DHT22;14648;49.730;8.614;2023-09-12T05:35:24;20.40;60.20
27114;DHT22;14648;49.730;8.614;2023-09-12T05:37:50;20.40;60.20
27114;DHT22;14648;49.730;8.614;2023-09-12T05:40:17;20.40;60.20
27114;DHT22;14648;49.730;8.614;2023-09-12T05:42:43;20.40;60.30
27114;DHT22;14648;49.730;8.614;2023-09-12T05:45:09;20.40;60.30
27114;DHT22;14648;49.730;8.614;2023-09-12T05:47:35;20.40;60.40
27114;DHT22;14648;49.730;8.614;2023-09-12T05:50:01;20.30;60.60
27114;DHT22;14648;49.730;8.614;2023-09-12T05:52:30;20.30;60.70
27114;DHT22;14648;49.730;8.614;2023-09-12T05:54:56;20.30;60.80
27114;DHT22;14648;49.730;8.614;2023-09-12T05:57:22;20.30;60.80
27114;DHT22;14648;49.730;8.614;2023-09-12T05:59:47;20.30;60.80
27114;DHT22;14648;49.730;8.614;2023-09-12T06:02:16;20.40;60.80
27114;DHT22;14648;49.730;8.614;2023-09-12T06:04:43;20.40;60.80
27114;DHT22;14648;49.730;8.614;2023-09-12T06:07:09;20.40;60.80
27114;DHT22;14648;49.730;8.614;2023-09-12T06:09:35;20.40;60.80
27114;DHT22;14648;49.730;8.614;2023-09-12T06:12:01;20.40;60.90
27114;DHT22;14648;49.730;8.614;2023-09-12T06:14:27;20.40;61.00
27114;DHT22;14648;49.730;8.614;2023-09-12T06:16:53;20.40;61.00
27114;DHT22;14648;49.730;8.614;2023-09-12T06:19:19;20.50;61.20
27114;DHT22;14648;49.730;8.614;2023-09-12T06:21:45;20.50;61.20
27114;DHT22;14648;49.730;8.614;2023-09-12T06:24:14;20.50;61.20
27114;DHT22;14648;49.730;8.614;2023-09-12T06:26:44;20.50;61.40
27114;DHT22;14648;49.730;8.614;2023-09-12T06:29:09;20.50;61.30
27114;DHT22;14648;49.730;8.614;2023-09-12T06:31:35;20.50;61.30
27114;DHT22;14648;49.730;8.614;2023-09-12T06:34:01;20.50;61.30
27114;DHT22;14648;49.730;8.614;2023-09-12T06:36:28;20.50;61.40
27114;DHT22;14648;49.730;8.614;2023-09-12T06:38:57;20.50;61.40
27114;DHT22;14648;49.730;8.614;2023-09-12T06:41:24;20.50;61.50
27114;DHT22;14648;49.730;8.614;2023-09-12T06:43:50;20.60;61.50
27114;DHT22;14648;49.730;8.614;2023-09-12T06:46:15;20.60;61.50
27114;DHT22;14648;49.730;8.614;2023-09-12T06:48:47;20.60;61.50
27114;DHT22;14648;49.730;8.614;2023-09-12T06:51:15;20.60;61.60
27114;DHT22;14648;49.730;8.614;2023-09-12T06:53:41;20.50;61.60
27114;DHT22;14648;49.730;8.614;2023-09-12T06:56:07;20.60;61.60
27114;DHT22;14648;49.730;8.614;2023-09-12T06:58:33;20.60;61.80
27114;DHT22;14648;49.730;8.614;2023-09-12T07:01:06;20.60;61.90
27114;DHT22;14648;49.730;8.614;2023-09-12T07:03:35;20.60;62.10
27114;DHT22;14648;49.730;8.614;2023-09-12T07:06:02;20.70;62.10
27114;DHT22;14648;49.730;8.614;2023-09-12T07:08:32;20.70;62.20
27114;DHT22;14648;49.730;8.614;2023-09-12T07:10:58;20.70;62.20
27114;DHT22;14648;49.730;8.614;2023-09-12T07:13:31;20.80;62.10
27114;DHT22;14648;49.730;8.614;2023-09-12T07:15:58;20.80;62.10
27114;DHT22;14648;49.730;8.614;2023-09-12T07:18:24;21.00;62.20
27114;DHT22;14648;49.730;8.614;2023-09-12T07:20:58;21.00;62.20
27114;DHT22;14648;49.730;8.614;2023-09-12T07:23:24;21.10;62.40
27114;DHT22;14648;49.730;8.614;2023-09-12T07:25:50;21.20;62.10
27114;DHT22;14648;49.730;8.614;2023-09-12T07:28:16;21.30;62.10
27114;DHT22;14648;49.730;8.614;2023-09-12T07:30:41;21.40;62.10
27114;DHT22;14648;49.730;8.614;2023-09-12T07:33:11;21.50;62.20
27114;DHT22;14648;49.730;8.614;2023-09-12T07:35:36;21.60;62.10
27114;DHT22;14648;49.730;8.614;2023-09-12T07:38:02;21.70;62.10
27114;DHT22;14648;49.730;8.614;2023-09-12T07:40:28;21.80;61.90
27114;DHT22;14648;49.730;8.614;2023-09-12T07:42:55;21.90;61.90
27114;DHT22;14648;49.730;8.614;2023-09-12T07:45:20;22.00;61.90
27114;DHT22;14648;49.730;8.614;2023-09-12T07:47:46;22.10;61.90
27114;DHT22;14648;49.730;8.614;2023-09-12T07:50:12;22.20;61.80
27114;DHT22;14648;49.730;8.614;2023-09-12T07:52:38;22.30;61.80
27114;DHT22;14648;49.730;8.614;2023-09-12T07:55:04;22.40;61.70
27114;DHT22;14648;49.730;8.614;2023-09-12T07:57:30;22.50;61.80
27114;DHT22;14648;49.730;8.614;2023-09-12T07:59:57;22.70;61.70
27114;DHT22;14648;49.730;8.614;2023-09-12T08:02:22;22.80;61.50
27114;DHT22;14648;49.730;8.614;2023-09-12T08:04:49;22.90;61.40
27114;DHT22;14648;49.730;8.614;2023-09-12T08:07:21;23.00;61.20
27114;DHT22;14648;49.730;8.614;2023-09-12T08:12:15;23.30;61.00
27114;DHT22;14648;49.730;8.614;2023-09-12T08:14:40;23.40;60.70
27114;DHT22;14648;49.730;8.614;2023-09-12T08:17:06;23.50;60.50
27114;DHT22;14648;49.730;8.614;2023-09-12T08:19:31;23.60;60.40
27114;DHT22;14648;49.730;8.614;2023-09-12T08:21:57;23.80;60.30
27114;DHT22;14648;49.730;8.614;2023-09-12T08:24:23;23.90;59.90
27114;DHT22;14648;49.730;8.614;2023-09-12T08:26:48;24.00;60.00
27114;DHT22;14648;49.730;8.614;2023-09-12T08:29:15;24.10;59.90
27114;DHT22;14648;49.730;8.614;2023-09-12T08:31:40;24.20;59.70
27114;DHT22;14648;49.730;8.614;2023-09-12T08:34:06;24.30;59.60
27114;DHT22;14648;49.730;8.614;2023-09-12T08:36:31;24.40;59.40
27114;DHT22;14648;49.730;8.614;2023-09-12T08:38:57;24.60;59.30
27114;DHT22;14648;49.730;8.614;2023-09-12T08:41:23;24.60;59.20
27114;DHT22;14648;49.730;8.614;2023-09-12T08:43:49;24.80;59.20
27114;DHT22;14648;49.730;8.614;2023-09-12T08:46:15;24.90;59.10
27114;DHT22;14648;49.730;8.614;2023-09-12T08:48:43;25.10;59.00
27114;DHT22;14648;49.730;8.614;2023-09-12T08:51:10;25.30;58.70
27114;DHT22;14648;49.730;8.614;2023-09-12T08:53:37;25.40;58.50
27114;DHT22;14648;49.730;8.614;2023-09-12T08:56:04;25.50;58.30
27114;DHT22;14648;49.730;8.614;2023-09-12T08:58:32;25.60;58.10
27114;DHT22;14648;49.730;8.614;2023-09-12T09:01:00;25.70;57.90
27114;DHT22;14648;49.730;8.614;2023-09-12T09:03:26;25.80;57.80
27114;DHT22;14648;49.730;8.614;2023-09-12T09:05:54;25.90;57.70
27114;DHT22;14648;49.730;8.614;2023-09-12T09:08:21;26.00;58.00
27114;DHT22;14648;49.730;8.614;2023-09-12T09:10:58;26.20;57.80
27114;DHT22;14648;49.730;8.614;2023-09-12T09:13:27;26.30;57.50
27114;DHT22;14648;49.730;8.614;2023-09-12T09:16:17;26.50;57.20
27114;DHT22;14648;49.730;8.614;2023-09-12T09:18:51;26.60;57.00
27114;DHT22;14648;49.730;8.614;2023-09-12T09:21:22;26.70;56.70
27114;DHT22;14648;49.730;8.614;2023-09-12T09:23:51;26.80;56.40
27114;DHT22;14648;49.730;8.614;2023-09-12T09:26:18;26.90;56.30
27114;DHT22;14648;49.730;8.614;2023-09-12T09:28:44;27.00;56.60
27114;DHT22;14648;49.730;8.614;2023-09-12T09:31:11;27.10;56.60
27114;DHT22;14648;49.730;8.614;2023-09-12T09:33:39;27.30;56.30
27114;DHT22;14648;49.730;8.614;2023-09-12T09:36:07;27.30;56.20
27114;DHT22;14648;49.730;8.614;2023-09-12T09:38:36;27.40;56.00
27114;DHT22;14648;49.730;8.614;2023-09-12T09:41:06;27.50;55.70
27114;DHT22;14648;49.730;8.614;2023-09-12T09:43:32;27.60;55.60
27114;DHT22;14648;49.730;8.614;2023-09-12T09:45:58;27.60;55.40
27114;DHT22;14648;49.730;8.614;2023-09-12T09:48:26;27.60;55.40
27114;DHT22;14648;49.730;8.614;2023-09-12T09:50:53;27.70;55.20
27114;DHT22;14648;49.730;8.614;2023-09-12T09:53:32;27.70;55.20
27114;DHT22;14648;49.730;8.614;2023-09-12T09:56:12;27.80;54.80
27114;DHT22;14648;49.730;8.614;2023-09-12T09:58:50;27.90;54.80
27114;DHT22;14648;49.730;8.614;2023-09-12T10:01:19;27.90;54.70
27114;DHT22;14648;49.730;8.614;2023-09-12T10:03:47;28.00;55.00
27114;DHT22;14648;49.730;8.614;2023-09-12T10:06:15;28.10;54.70
27114;DHT22;14648;49.730;8.614;2023-09-12T10:08:46;28.20;54.60
27114;DHT22;14648;49.730;8.614;2023-09-12T10:11:20;28.30;54.50
27114;DHT22;14648;49.730;8.614;2023-09-12T10:13:57;28.40;54.20
27114;DHT22;14648;49.730;8.614;2023-09-12T10:16:31;28.50;54.00
27114;DHT22;14648;49.730;8.614;2023-09-12T10:19:17;28.50;54.00
27114;DHT22;14648;49.730;8.614;2023-09-12T10:24:49;28.70;53.60
27114;DHT22;14648;49.730;8.614;2023-09-12T10:27:15;28.80;53.40
27114;DHT22;14648;49.730;8.614;2023-09-12T10:29:41;28.80;53.30
27114;DHT22;14648;49.730;8.614;2023-09-12T10:32:08;28.80;53.20
27114;DHT22;14648;49.730;8.614;2023-09-12T10:34:35;28.90;53.10
27114;DHT22;14648;49.730;8.614;2023-09-12T10:37:03;28.90;53.10
27114;DHT22;14648;49.730;8.614;2023-09-12T10:39:32;29.10;53.50
27114;DHT22;14648;49.730;8.614;2023-09-12T10:41:59;29.20;53.20
27114;DHT22;14648;49.730;8.614;2023-09-12T10:44:25;29.40;52.80
27114;DHT22;14648;49.730;8.614;2023-09-12T10:46:52;29.50;52.60
27114;DHT22;14648;49.730;8.614;2023-09-12T10:49:21;29.70;52.20
27114;DHT22;14648;49.730;8.614;2023-09-12T10:51:47;29.80;52.00
27114;DHT22;14648;49.730;8.614;2023-09-12T10:54:24;29.90;51.80
27114;DHT22;14648;49.730;8.614;2023-09-12T10:57:10;30.00;51.90
27114;DHT22;14648;49.730;8.614;2023-09-12T11:02:31;30.10;51.50
27114;DHT22;14648;49.730;8.614;2023-09-12T11:04:59;30.10;51.30
27114;DHT22;14648;49.730;8.614;2023-09-12T11:12:48;30.30;50.70
27114;DHT22;14648;49.730;8.614;2023-09-12T11:15:16;30.40;50.70
27114;DHT22;14648;49.730;8.614;2023-09-12T11:17:44;30.40;50.50
27114;DHT22;14648;49.730;8.614;2023-09-12T11:20:11;30.50;50.30
27114;DHT22;14648;49.730;8.614;2023-09-12T11:22:46;30.50;50.20
27114;DHT22;14648;49.730;8.614;2023-09-12T11:30:23;30.80;49.40
27114;DHT22;14648;49.730;8.614;2023-09-12T11:33:05;30.90;49.10
27114;DHT22;14648;49.730;8.614;2023-09-12T11:35:36;30.90;49.00
27114;DHT22;14648;49.730;8.614;2023-09-12T11:38:03;30.90;48.80
27114;DHT22;14648;49.730;8.614;2023-09-12T11:42:57;31.00;49.20
27114;DHT22;14648;49.730;8.614;2023-09-12T11:45:23;31.00;49.20
27114;DHT22;14648;49.730;8.614;2023-09-12T11:47:49;31.10;48.90
27114;DHT22;14648;49.730;8.614;2023-09-12T11:50:32;31.20;48.70
27114;DHT22;14648;49.730;8.614;2023-09-12T11:53:08;31.30;48.40
27114;DHT22;14648;49.730;8.614;2023-09-12T11:55:41;31.20;48.30
27114;DHT22;14648;49.730;8.614;2023-09-12T11:58:09;31.30;48.20
27114;DHT22;14648;49.730;8.614;2023-09-12T12:00:36;31.30;48.20
27114;DHT22;14648;49.730;8.614;2023-09-12T12:03:03;31.50;48.20
27114;DHT22;14648;49.730;8.614;2023-09-12T12:05:30;31.60;47.70
27114;DHT22;14648;49.730;8.614;2023-09-12T12:07:58;31.70;47.70
27114;DHT22;14648;49.730;8.614;2023-09-12T12:10:24;31.80;47.30
27114;DHT22;14648;49.730;8.614;2023-09-12T12:12:53;31.90;47.10
27114;DHT22;14648;49.730;8.614;2023-09-12T12:15:20;32.00;47.50
27114;DHT22;14648;49.730;8.614;2023-09-12T12:17:46;32.10;47.30
27114;DHT22;14648;49.730;8.614;2023-09-12T12:20:11;32.30;47.10
27114;DHT22;14648;49.730;8.614;2023-09-12T12:22:38;32.40;46.90
27114;DHT22;14648;49.730;8.614;2023-09-12T12:25:12;32.50;46.40
27114;DHT22;14648;49.730;8.614;2023-09-12T12:27:39;32.60;46.30
27114;DHT22;14648;49.730;8.614;2023-09-12T12:30:10;32.60;46.30
27114;DHT22;14648;49.730;8.614;2023-09-12T12:32:44;32.50;46.20
27114;DHT22;14648;49.730;8.614;2023-09-12T12:35:18;32.50;46.20
27114;DHT22;14648;49.730;8.614;2023-09-12T12:37:45;32.50;46.20
27114;DHT22;14648;49.730;8.614;2023-09-12T12:40:14;32.60;46.00
27114;DHT22;14648;49.730;8.614;2023-09-12T12:42:41;32.60;46.00
27114;DHT22;14648;49.730;8.614;2023-09-12T12:45:15;32.80;45.70
27114;DHT22;14648;49.730;8.614;2023-09-12T12:47:42;33.00;45.60
27114;DHT22;14648;49.730;8.614;2023-09-12T12:50:16;33.00;45.60
27114;DHT22;14648;49.730;8.614;2023-09-12T12:52:47;33.10;45.40
27114;DHT22;14648;49.730;8.614;2023-09-12T12:55:14;33.30;45.10
27114;DHT22;14648;49.730;8.614;2023-09-12T12:57:43;33.40;45.00
27114;DHT22;14648;49.730;8.614;2023-09-12T13:00:14;33.40;44.90
27114;DHT22;14648;49.730;8.614;2023-09-12T13:02:43;33.50;44.70
27114;DHT22;14648;49.730;8.614;2023-09-12T13:05:28;33.70;44.70
27114;DHT22;14648;49.730;8.614;2023-09-12T13:07:55;33.70;44.30
27114;DHT22;14648;49.730;8.614;2023-09-12T13:10:22;33.60;44.30
27114;DHT22;14648;49.730;8.614;2023-09-12T13:12:49;33.60;44.20
27114;DHT22;14648;49.730;8.614;2023-09-12T13:15:15;33.70;43.80
27114;DHT22;14648;49.730;8.614;2023-09-12T13:17:43;33.60;43.90
27114;DHT22;14648;49.730;8.614;2023-09-12T13:20:09;33.60;43.90
27114;DHT22;14648;49.730;8.614;2023-09-12T13:22:36;33.60;43.80
27114;DHT22;14648;49.730;8.614;2023-09-12T13:25:02;33.70;43.30
27114;DHT22;14648;49.730;8.614;2023-09-12T13:27:28;33.80;43.40
27114;DHT22;14648;49.730;8.614;2023-09-12T13:29:54;33.90;43.00
27114;DHT22;14648;49.730;8.614;2023-09-12T13:32:20;34.00;43.40
27114;DHT22;14648;49.730;8.614;2023-09-12T13:34:46;34.10;43.00
27114;DHT22;14648;49.730;8.614;2023-09-12T13:37:11;34.20;42.90
27114;DHT22;14648;49.730;8.614;2023-09-12T13:39:37;34.20;42.80
27114;DHT22;14648;49.730;8.614;2023-09-12T13:42:03;34.40;42.40
27114;DHT22;14648;49.730;8.614;2023-09-12T13:44:33;34.60;42.10
27114;DHT22;14648;49.730;8.614;2023-09-12T13:46:59;34.70;41.80
27114;DHT22;14648;49.730;8.614;2023-09-12T13:49:25;34.80;41.60
27114;DHT22;14648;49.730;8.614;2023-09-12T13:51:51;34.70;41.30
27114;DHT22;14648;49.730;8.614;2023-09-12T13:54:16;34.80;41.20
27114;DHT22;14648;49.730;8.614;2023-09-12T13:56:42;34.80;41.10
27114;DHT22;14648;49.730;8.614;2023-09-12T13:59:08;34.90;41.10
27114;DHT22;14648;49.730;8.614;2023-09-12T14:01:34;35.00;41.30
27114;DHT22;14648;49.730;8.614;2023-09-12T14:04:00;35.00;41.10
27114;DHT22;14648;49.730;8.614;2023-09-12T14:06:25;35.10;40.90
27114;DHT22;14648;49.730;8.614;2023-09-12T14:08:52;35.20;40.70
27114;DHT22;14648;49.730;8.614;2023-09-12T14:11:18;35.20;40.60
27114;DHT22;14648;49.730;8.614;2023-09-12T14:13:44;35.10;40.60
27114;DHT22;14648;49.730;8.614;2023-09-12T14:16:09;35.20;40.60
27114;DHT22;14648;49.730;8.614;2023-09-12T14:18:35;35.20;40.30
27114;DHT22;14648;49.730;8.614;2023-09-12T14:21:01;35.30;40.10
27114;DHT22;14648;49.730;8.614;2023-09-12T14:23:26;35.30;40.00
27114;DHT22;14648;49.730;8.614;2023-09-12T14:25:52;35.20;40.00
27114;DHT22;14648;49.730;8.614;2023-09-12T14:28:18;35.20;40.00
27114;DHT22;14648;49.730;8.614;2023-09-12T14:30:43;35.10;40.20
27114;DHT22;14648;49.730;8.614;2023-09-12T14:33:11;35.20;40.00
27114;DHT22;14648;49.730;8.614;2023-09-12T14:35:37;35.10;39.80
27114;DHT22;14648;49.730;8.614;2023-09-12T14:38:03;35.10;39.70
27114;DHT22;14648;49.730;8.614;2023-09-12T14:40:32;35.10;39.60
27114;DHT22;14648;49.730;8.614;2023-09-12T14:42:58;34.90;39.20
27114;DHT22;14648;49.730;8.614;2023-09-12T14:45:23;34.70;39.30
27114;DHT22;14648;49.730;8.614;2023-09-12T14:47:51;34.50;39.30
27114;DHT22;14648;49.730;8.614;2023-09-12T14:50:16;34.20;39.40
27114;DHT22;14648;49.730;8.614;2023-09-12T14:52:42;34.00;39.50
27114;DHT22;14648;49.730;8.614;2023-09-12T14:55:09;33.80;39.20
27114;DHT22;14648;49.730;8.614;2023-09-12T14:57:35;33.50;39.40
27114;DHT22;14648;49.730;8.614;2023-09-12T15:00:01;33.40;39.60
27114;DHT22;14648;49.730;8.614;2023-09-12T15:02:26;33.20;39.90
27114;DHT22;14648;49.730;8.614;2023-09-12T15:05:00;33.00;40.10
27114;DHT22;14648;49.730;8.614;2023-09-12T15:07:27;32.90;39.80
27114;DHT22;14648;49.730;8.614;2023-09-12T15:09:55;32.90;39.90
27114;DHT22;14648;49.730;8.614;2023-09-12T15:12:21;32.90;40.10
27114;DHT22;14648;49.730;8.614;2023-09-12T15:14:47;33.00;40.90
27114;DHT22;14648;49.730;8.614;2023-09-12T15:17:12;33.00;40.90
27114;DHT22;14648;49.730;8.614;2023-09-12T15:19:38;33.00;40.80
27114;DHT22;14648;49.730;8.614;2023-09-12T15:22:04;33.00;40.90
27114;DHT22;14648;49.730;8.614;2023-09-12T15:24:29;32.90;40.40
27114;DHT22;14648;49.730;8.614;2023-09-12T15:26:55;32.80;40.60
27114;DHT22;14648;49.730;8.614;2023-09-12T15:29:21;32.70;40.60
27114;DHT22;14648;49.730;8.614;2023-09-12T15:31:46;32.60;40.70
27114;DHT22;14648;49.730;8.614;2023-09-12T15:34:12;32.40;40.90
27114;DHT22;14648;49.730;8.614;2023-09-12T15:36:44;32.20;41.20
27114;DHT22;14648;49.730;8.614;2023-09-12T15:39:10;32.00;41.50
27114;DHT22;14648;49.730;8.614;2023-09-12T15:41:36;31.80;41.30
27114;DHT22;14648;49.730;8.614;2023-09-12T15:44:02;31.60;41.70
27114;DHT22;14648;49.730;8.614;2023-09-12T15:46:31;31.50;41.90
27114;DHT22;14648;49.730;8.614;2023-09-12T15:48:57;31.40;42.10
27114;DHT22;14648;49.730;8.614;2023-09-12T15:51:24;31.20;42.30
27114;DHT22;14648;49.730;8.614;2023-09-12T15:53:50;31.20;43.20
27114;DHT22;14648;49.730;8.614;2023-09-12T15:56:19;31.20;42.50